createdAt,value
2023-04-23T00:04:01.701Z,12.07
2023-04-23T00:09:04.660Z,12.33
2023-04-23T00:14:07.504Z,12.40
2023-04-23T00:19:11.066Z,12.90
2023-04-23T00:24:13.429Z,11.90
2023-04-23T00:29:15.807Z,16.07
2023-04-23T00:34:18.096Z,12.70
2023-04-23T00:39:20.588Z,13.23
2023-04-23T00:44:22.984Z,13.20
2023-04-23T00:49:25.741Z,12.43
2023-04-23T00:54:28.553Z,12.37
2023-04-23T00:59:32.357Z,12.13
2023-04-23T01:04:35.963Z,12.70
2023-04-23T01:09:38.374Z,14.03
2023-04-23T01:14:42.094Z,11.93
2023-04-23T01:19:44.768Z,12.40
2023-04-23T01:24:47.797Z,12.00
2023-04-23T01:29:50.262Z,12.87
2023-04-23T01:34:54.824Z,11.90
2023-04-23T01:39:57.336Z,13.50
2023-04-23T01:44:59.744Z,13.77
2023-04-23T01:50:02.148Z,13.30
2023-04-23T01:55:06.401Z,14.40
2023-04-23T02:00:11.631Z,13.47
2023-04-23T02:05:18.931Z,13.67
2023-04-23T02:10:21.587Z,12.97
2023-04-23T02:15:25.724Z,12.90
2023-04-23T02:20:28.875Z,13.47
2023-04-23T02:25:32.548Z,12.53
2023-04-23T02:30:35.926Z,13.57
2023-04-23T02:35:41.229Z,16.87
2023-04-23T02:40:44.145Z,16.07
2023-04-23T02:45:46.567Z,15.33
2023-04-23T02:50:49.374Z,16.07
2023-04-23T02:55:51.761Z,15.40
2023-04-23T03:00:54.635Z,15.50
2023-04-23T03:05:57.180Z,14.87
2023-04-23T03:10:59.645Z,14.40
2023-04-23T03:16:02.078Z,15.07
2023-04-23T03:21:04.590Z,15.40
2023-04-23T03:26:07.268Z,16.13
2023-04-23T03:31:09.765Z,14.20
2023-04-23T03:36:12.291Z,15.67
2023-04-23T03:41:14.690Z,11.37
2023-04-23T03:46:17.341Z,12.30
2023-04-23T03:51:20.994Z,12.93
2023-04-23T03:56:26.941Z,13.33
2023-04-23T04:02:08.191Z,11.47
2023-04-23T04:07:12.389Z,12.57
2023-04-23T04:12:14.743Z,10.60
2023-04-23T04:17:18.627Z,9.37
2023-04-23T04:22:21.056Z,9.90
2023-04-23T04:27:23.438Z,10.90
2023-04-23T04:32:25.849Z,13.00
2023-04-23T04:37:28.450Z,11.87
2023-04-23T04:42:31.410Z,11.97
2023-04-23T04:47:33.917Z,11.00
2023-04-23T04:52:36.862Z,10.77
2023-04-23T04:57:39.225Z,10.00
2023-04-23T05:02:41.724Z,10.47
2023-04-23T05:07:44.137Z,10.30
2023-04-23T05:12:47.025Z,9.60
2023-04-23T05:17:53.758Z,9.10
2023-04-23T05:22:56.472Z,10.20
2023-04-23T05:27:59.017Z,9.93
2023-04-23T05:33:01.405Z,10.73
2023-04-23T05:38:05.311Z,9.83
2023-04-23T05:43:07.950Z,9.70
2023-04-23T05:48:10.395Z,9.63
2023-04-23T05:53:13.064Z,8.80
2023-04-23T05:58:16.068Z,8.90
2023-04-23T06:03:18.745Z,8.07
2023-04-23T06:08:21.963Z,8.83
2023-04-23T06:13:26.048Z,8.50
2023-04-23T06:18:28.625Z,8.43
2023-04-23T06:23:31.650Z,8.20
2023-04-23T06:28:34.115Z,7.73
2023-04-23T06:33:59.709Z,7.20
2023-04-23T06:39:02.136Z,8.17
2023-04-23T06:44:04.631Z,6.57
2023-04-23T06:49:11.340Z,7.23
2023-04-23T06:54:13.627Z,7.17
2023-04-23T06:59:15.998Z,6.40
2023-04-23T07:04:22.325Z,5.53
2023-04-23T07:09:25.008Z,5.27
2023-04-23T07:14:27.429Z,4.13
2023-04-23T07:19:29.824Z,3.90
2023-04-23T07:24:32.183Z,3.87
2023-04-23T07:29:34.522Z,3.27
2023-04-23T07:34:38.069Z,2.60
2023-04-23T07:39:43.816Z,2.27
2023-04-23T07:44:49.461Z,0.80
2023-04-23T07:49:51.799Z,1.90
2023-04-23T07:54:54.344Z,0.80
2023-04-23T07:59:56.772Z,1.30
2023-04-23T08:04:59.275Z,1.50
2023-04-23T08:10:05.462Z,1.10
2023-04-23T08:15:08.646Z,2.00
2023-04-23T08:20:15.634Z,2.17
2023-04-23T08:25:18.044Z,1.60
2023-04-23T08:30:20.516Z,4.90
2023-04-23T08:35:23.847Z,1.70
2023-04-23T08:40:27.002Z,2.00
2023-04-23T08:45:30.522Z,1.50
2023-04-23T08:50:34.004Z,2.10
2023-04-23T08:55:37.028Z,1.97
2023-04-23T09:00:40.142Z,2.00
2023-04-23T09:05:42.796Z,1.83
2023-04-23T09:10:45.355Z,1.53
2023-04-23T09:15:47.822Z,1.70
2023-04-23T09:20:50.634Z,1.83
2023-04-23T09:25:53.080Z,1.93
2023-04-23T09:30:55.688Z,1.33
2023-04-23T09:35:58.122Z,1.30
2023-04-23T09:41:01.515Z,2.40
2023-04-23T09:46:03.956Z,1.50
2023-04-23T09:51:06.414Z,1.60
2023-04-23T09:56:11.962Z,1.13
2023-04-23T10:01:15.671Z,1.50
2023-04-23T10:06:36.863Z,1.50
2023-04-23T10:11:42.352Z,1.53
2023-04-23T10:16:49.263Z,1.33
2023-04-23T10:22:18.649Z,2.07
2023-04-23T10:27:33.474Z,1.90
2023-04-23T10:32:46.070Z,2.17
2023-04-23T10:37:48.942Z,1.30
2023-04-23T10:42:51.824Z,1.70
2023-04-23T10:47:57.502Z,1.97
2023-04-23T10:53:00.034Z,1.73
2023-04-23T10:58:05.061Z,1.47
2023-04-23T11:03:43.084Z,1.80
2023-04-23T11:08:54.651Z,2.10
2023-04-23T11:14:00.915Z,2.00
2023-04-23T11:19:05.454Z,1.50
2023-04-23T11:24:08.308Z,1.50
2023-04-23T11:29:14.606Z,2.33
2023-04-23T11:34:17.965Z,1.60
2023-04-23T11:39:21.662Z,1.30
2023-04-23T11:44:24.057Z,2.10
2023-04-23T11:49:26.533Z,2.30
2023-04-23T11:54:29.951Z,2.70
2023-04-23T11:59:32.327Z,1.93
2023-04-23T12:04:34.787Z,2.10
2023-04-23T12:09:38.749Z,1.73
2023-04-23T12:14:41.183Z,2.20
2023-04-23T12:19:45.268Z,1.67
2023-04-23T12:24:55.295Z,1.90
2023-04-23T12:30:01.585Z,2.07
2023-04-23T12:35:07.085Z,2.13
2023-04-23T12:40:10.523Z,1.93
2023-04-23T12:45:13.327Z,1.80
2023-04-23T12:50:15.961Z,1.90
2023-04-23T12:55:18.475Z,2.00
2023-04-23T13:00:21.125Z,2.07
2023-04-23T13:05:24.098Z,2.20
2023-04-23T13:10:26.662Z,2.03
2023-04-23T13:15:29.068Z,2.13
2023-04-23T13:20:31.607Z,2.43
2023-04-23T13:25:33.986Z,2.23
2023-04-23T13:30:36.340Z,2.30
2023-04-23T13:35:38.949Z,2.33
2023-04-23T13:40:42.295Z,2.50
2023-04-23T13:45:44.911Z,1.83
2023-04-23T13:50:47.424Z,2.47
2023-04-23T13:55:49.746Z,1.73
2023-04-23T14:00:53.233Z,2.40
2023-04-23T14:05:55.811Z,1.87
2023-04-23T14:10:58.235Z,2.13
2023-04-23T14:16:03.426Z,1.70
2023-04-23T14:21:07.117Z,1.67
2023-04-23T14:26:11.116Z,1.87
2023-04-23T14:31:13.675Z,2.40
2023-04-23T14:36:16.182Z,2.07
2023-04-23T14:41:18.578Z,2.00
2023-04-23T14:46:21.085Z,2.10
2023-04-23T14:51:23.983Z,1.73
2023-04-23T14:56:27.503Z,2.63
2023-04-23T15:01:30.791Z,3.37
2023-04-23T15:06:33.290Z,2.90
2023-04-23T15:11:35.849Z,2.10
2023-04-23T15:21:43.600Z,1.90
2023-04-23T15:26:46.964Z,2.50
2023-04-23T15:31:49.853Z,2.13
2023-04-23T15:36:52.181Z,2.77
2023-04-23T15:41:54.624Z,2.40
2023-04-23T15:46:57.040Z,6.20
2023-04-23T15:51:59.657Z,4.00
2023-04-23T15:57:03.080Z,2.30
2023-04-23T16:02:05.740Z,3.70
2023-04-23T16:07:08.357Z,3.80
2023-04-23T16:12:10.840Z,3.53
2023-04-23T16:17:13.392Z,12.30
2023-04-23T16:22:16.692Z,5.93
2023-04-23T16:27:19.073Z,4.77
2023-04-23T16:32:21.673Z,4.23
2023-04-23T16:37:24.066Z,3.80
2023-04-23T16:42:27.164Z,3.83
2023-04-23T16:47:31.464Z,3.77
2023-04-23T16:52:34.082Z,5.43
2023-04-23T16:57:37.225Z,9.50
2023-04-23T17:02:41.720Z,10.63
2023-04-23T17:07:44.445Z,10.00
2023-04-23T17:12:47.010Z,9.50
2023-04-23T17:17:49.920Z,8.27
2023-04-23T17:22:52.372Z,7.77
2023-04-23T17:27:54.994Z,11.83
2023-04-23T17:32:57.395Z,8.73
2023-04-23T17:37:59.743Z,9.17
2023-04-23T17:43:02.220Z,8.43
2023-04-23T17:48:05.621Z,10.17
2023-04-23T17:53:08.427Z,12.13
2023-04-23T17:58:10.869Z,10.63
2023-04-23T18:03:16.998Z,8.33
2023-04-23T18:08:21.750Z,8.00
2023-04-23T18:13:24.247Z,10.37
2023-04-23T18:18:26.723Z,10.77
2023-04-23T18:23:29.883Z,9.77
2023-04-23T18:28:37.750Z,10.07
2023-04-23T18:33:49.941Z,8.60
2023-04-23T18:38:54.538Z,9.20
2023-04-23T18:43:57.517Z,10.30
2023-04-23T18:49:38.841Z,9.10
2023-04-23T18:54:45.104Z,8.40
2023-04-23T18:59:49.046Z,9.17
2023-04-23T19:04:51.745Z,8.77
2023-04-23T19:09:54.199Z,8.60
2023-04-23T19:14:56.566Z,9.50
2023-04-23T19:19:58.962Z,8.27
2023-04-23T19:25:01.460Z,9.07
2023-04-23T19:30:07.693Z,8.10
2023-04-23T19:35:13.136Z,10.40
2023-04-23T19:40:15.661Z,8.13
2023-04-23T19:45:18.824Z,7.50
2023-04-23T19:50:21.460Z,7.83
2023-04-23T19:55:27.411Z,8.03
2023-04-23T20:00:31.002Z,10.23
2023-04-23T20:05:33.733Z,10.83
2023-04-23T20:10:36.175Z,9.17
2023-04-23T20:15:38.802Z,7.97
2023-04-23T20:20:42.349Z,6.80
2023-04-23T20:25:44.746Z,7.13
2023-04-23T20:30:49.597Z,6.20
2023-04-23T20:35:51.913Z,6.47
2023-04-23T20:40:54.392Z,7.00
2023-04-23T20:45:57.091Z,7.57
2023-04-23T20:50:59.889Z,6.97
2023-04-23T20:56:02.236Z,7.70
2023-04-23T21:01:06.818Z,8.93
2023-04-23T21:06:10.963Z,7.60
2023-04-23T21:11:18.015Z,8.03
2023-04-23T21:16:20.535Z,7.93
2023-04-23T21:21:27.394Z,8.27
2023-04-23T21:26:30.988Z,8.60
2023-04-23T21:31:47.024Z,8.80
2023-04-23T21:36:50.130Z,9.23
2023-04-23T21:41:52.583Z,8.07
2023-04-23T21:46:55.028Z,8.20
2023-04-23T21:51:57.622Z,7.90
2023-04-23T21:57:00.131Z,7.00
2023-04-23T22:02:02.567Z,8.13
2023-04-23T22:07:06.141Z,8.53
2023-04-23T22:12:09.164Z,8.57
2023-04-23T22:17:12.090Z,8.03
2023-04-23T22:22:14.424Z,8.53
2023-04-23T22:27:16.818Z,9.30
2023-04-23T22:32:19.180Z,6.93
2023-04-23T22:37:21.790Z,8.00
2023-04-23T22:42:24.540Z,8.37
2023-04-23T22:47:27.463Z,7.83
2023-04-23T22:52:30.233Z,8.30
2023-04-23T22:57:32.643Z,7.80
2023-04-23T23:02:35.140Z,8.10
2023-04-23T23:07:37.587Z,8.20
2023-04-23T23:12:39.877Z,6.93
2023-04-23T23:17:42.569Z,7.40
2023-04-23T23:22:44.961Z,6.60
2023-04-23T23:27:47.297Z,7.07
2023-04-23T23:32:49.714Z,7.47
2023-04-23T23:37:52.139Z,7.87
2023-04-23T23:42:54.468Z,8.47
2023-04-23T23:47:56.960Z,8.00
2023-04-23T23:52:59.285Z,7.10
2023-04-23T23:58:02.014Z,7.97
